Amber, Washington
Current Conditions -  °F | °C
As of 1:58 AM on Friday 28 Nov 2014 (Local Time) from KSKA Reporting Station
Clear Clear  
Wind Chill: 40°   Ceiling: Unl
Heat Index: 47°   Visibility: 10mi
Dew Point: 42°   Wind: 17mph
Humidity: 83%   Direction: 200°SSW
Pressure: 29.66"   Gusts: 26mph
Location:  47.411°N, 117.628°W
Report Text: KSKA 280958Z AUTO 20015G23KT 10SM CLR 08/06 A2966 RMK AO2 PK WND 21026/33 SLP048 T00820055
Loading
Personal Weather Stations






























Interactive Weather Map New forecast layout! Learn more

10-Day Weather Forecast

Advertisements
Track Severe Weather on mobile